Time;durP1;ratioP1;P1;durP2;ratioP2;P2;SDS_P1;SDS_P2;PMS_P1;PMS_P2;Temp;Humidity;BMP_temperature;BMP_pressure;BME280_temperature;BME280_humidity;BME280_pressure;Samples;Min_cycle;Max_cycle;Signal;HPM_P1;HPM_P2
2021/10/17 00:04:45;;;;;;;25.77;23.17;;;10.60;99.90;;;;;;10173326;29;20230;-83
2021/10/17 00:09:48;;;;;;;26.77;24.07;;;10.50;99.90;;;;;;10173262;29;20198;-83
2021/10/17 00:14:51;;;;;;;24.03;21.87;;;10.60;99.90;;;;;;10171897;29;20210;-83
2021/10/17 00:19:54;;;;;;;25.27;23.07;;;10.50;99.90;;;;;;10168069;29;20230;-83
2021/10/17 00:24:57;;;;;;;24.87;22.67;;;10.50;99.90;;;;;;10155174;29;20335;-83
2021/10/17 00:29:59;;;;;;;24.23;22.00;;;10.50;99.90;;;;;;10154252;29;20221;-83
2021/10/17 00:35:04;;;;;;;23.50;21.40;;;10.50;99.90;;;;;;10169617;29;20685;-83
2021/10/17 00:40:10;;;;;;;25.80;23.47;;;10.50;99.90;;;;;;10168874;29;20225;-83
2021/10/17 00:45:15;;;;;;;23.97;21.80;;;10.50;99.90;;;;;;10153720;29;20244;-83
2021/10/17 00:50:17;;;;;;;28.23;24.90;;;10.50;99.90;;;;;;10192560;29;20201;-83
2021/10/17 00:55:24;;;;;;;25.03;22.77;;;10.60;99.90;;;;;;10152752;29;20698;-83
2021/10/17 01:00:27;;;;;;;24.53;22.30;;;10.50;99.90;;;;;;10149114;29;20272;-83
2021/10/17 01:05:29;;;;;;;27.80;25.00;;;10.40;99.90;;;;;;10149209;29;20233;-83
2021/10/17 01:10:33;;;;;;;27.50;24.77;;;10.40;99.90;;;;;;10153916;29;20209;-83
2021/10/17 01:15:36;;;;;;;25.60;23.07;;;10.40;99.90;;;;;;10168288;29;20331;-83
2021/10/17 01:20:39;;;;;;;26.87;24.23;;;10.30;99.90;;;;;;10155687;29;20237;-84
2021/10/17 01:25:42;;;;;;;31.63;28.43;;;10.40;99.90;;;;;;10189918;29;20304;-83
2021/10/17 01:30:44;;;;;;;29.13;26.43;;;10.40;99.90;;;;;;10167225;29;20241;-83
2021/10/17 01:35:48;;;;;;;27.87;25.00;;;10.40;99.90;;;;;;10150360;29;20659;-83
2021/10/17 01:40:50;;;;;;;30.47;27.47;;;10.40;99.90;;;;;;10149750;29;20281;-83
2021/10/17 01:45:53;;;;;;;28.70;26.00;;;10.40;99.90;;;;;;10149988;29;20254;-83
2021/10/17 01:50:57;;;;;;;27.83;25.17;;;10.30;99.90;;;;;;10151464;29;20194;-83
2021/10/17 01:56:01;;;;;;;27.83;25.13;;;10.40;99.90;;;;;;10150985;29;20598;-83
2021/10/17 02:01:07;;;;;;;29.10;26.30;;;10.40;99.90;;;;;;10152167;29;20326;-84
2021/10/17 02:06:14;;;;;;;27.13;24.53;;;10.40;99.90;;;;;;10166381;29;20244;-83
2021/10/17 02:11:19;;;;;;;27.13;24.33;;;10.50;99.90;;;;;;10156351;29;20714;-83
2021/10/17 02:16:21;;;;;;;25.90;23.57;;;10.50;99.90;;;;;;10164946;29;20218;-83
2021/10/17 02:21:29;;;;;;;25.63;23.27;;;10.50;99.90;;;;;;10163886;29;20226;-83
2021/10/17 02:26:31;;;;;;;26.43;24.03;;;10.60;99.90;;;;;;10164566;29;20236;-83
2021/10/17 02:31:47;;;;;;;28.60;25.87;;;10.60;99.90;;;;;;10148692;29;20208;-83
2021/10/17 02:36:51;;;;;;;27.97;25.40;;;10.60;99.90;;;;;;10149400;29;20250;-83
2021/10/17 02:41:54;;;;;;;24.40;22.00;;;10.60;99.90;;;;;;10151036;29;20241;-83
2021/10/17 02:47:02;;;;;;;24.60;22.17;;;10.60;99.90;;;;;;10165074;29;20234;-83
2021/10/17 02:52:06;;;;;;;23.67;21.47;;;10.60;99.90;;;;;;10154542;29;20198;-83
2021/10/17 02:57:10;;;;;;;23.97;21.50;;;10.60;99.90;;;;;;10158786;29;20281;-83
2021/10/17 03:02:12;;;;;;;24.30;22.00;;;10.60;99.90;;;;;;10146942;29;20229;-83
2021/10/17 03:07:15;;;;;;;25.30;22.90;;;10.60;99.90;;;;;;10146573;29;20226;-83
2021/10/17 03:12:33;;;;;;;26.10;23.67;;;10.60;99.90;;;;;;10146899;29;20257;-83
2021/10/17 03:17:37;;;;;;;24.60;22.20;;;10.70;99.90;;;;;;10160954;29;20198;-83
2021/10/17 03:22:41;;;;;;;23.43;21.10;;;10.70;99.90;;;;;;10161673;29;20218;-83
2021/10/17 03:27:44;;;;;;;23.70;21.60;;;10.70;99.90;;;;;;10146458;29;20213;-83
2021/10/17 03:32:56;;;;;;;21.50;19.60;;;10.80;99.90;;;;;;10146843;29;20228;-83
2021/10/17 03:37:59;;;;;;;23.27;20.97;;;10.80;99.90;;;;;;10165521;29;20296;-83
2021/10/17 03:43:02;;;;;;;22.70;20.70;;;10.80;99.90;;;;;;10168295;29;20236;-83
2021/10/17 03:48:12;;;;;;;21.90;19.97;;;10.80;99.90;;;;;;10166984;29;20198;-83
2021/10/17 03:53:16;;;;;;;21.33;19.23;;;10.80;99.90;;;;;;10167207;29;20314;-83
2021/10/17 03:58:18;;;;;;;20.70;18.80;;;10.70;99.90;;;;;;10153836;29;20369;-83
2021/10/17 04:03:22;;;;;;;22.73;20.73;;;10.60;99.90;;;;;;10152914;29;20228;-83
2021/10/17 04:08:31;;;;;;;21.70;19.80;;;10.60;99.90;;;;;;10154729;29;20599;-83
2021/10/17 04:13:34;;;;;;;21.40;19.47;;;10.60;99.90;;;;;;10155706;29;20234;-83
2021/10/17 04:18:38;;;;;;;22.23;20.13;;;10.60;99.90;;;;;;10168123;29;20718;-83
2021/10/17 04:23:41;;;;;;;22.30;20.20;;;10.50;99.90;;;;;;10167781;29;20273;-83
2021/10/17 04:28:44;;;;;;;21.27;19.27;;;10.50;99.90;;;;;;10168322;29;20266;-83
2021/10/17 04:33:46;;;;;;;21.90;18.40;;;10.50;99.90;;;;;;10169518;29;20210;-83
2021/10/17 04:38:51;;;;;;;20.13;18.33;;;10.40;99.90;;;;;;10180694;29;20229;-83
2021/10/17 04:43:53;;;;;;;21.70;19.70;;;10.40;99.90;;;;;;10153704;29;20222;-83
2021/10/17 04:48:55;;;;;;;22.73;20.53;;;10.40;99.90;;;;;;10169021;29;20236;-83
2021/10/17 04:53:59;;;;;;;21.87;19.87;;;10.40;99.90;;;;;;10170502;29;20222;-83
2021/10/17 04:59:01;;;;;;;21.60;19.50;;;10.50;99.90;;;;;;10173424;29;20247;-83
2021/10/17 05:04:03;;;;;;;20.43;18.63;;;10.50;99.90;;;;;;10147869;29;20658;-83
2021/10/17 05:09:08;;;;;;;21.00;19.10;;;10.50;99.90;;;;;;10145803;29;20245;-83
2021/10/17 05:14:12;;;;;;;20.43;18.33;;;10.50;99.90;;;;;;10145204;29;20621;-83
2021/10/17 05:19:15;;;;;;;20.80;18.90;;;10.60;99.90;;;;;;10159665;29;20233;-83
2021/10/17 05:24:21;;;;;;;19.97;18.17;;;10.50;99.90;;;;;;10161606;29;20294;-82
2021/10/17 05:29:23;;;;;;;21.00;19.10;;;10.60;99.90;;;;;;10144501;29;20202;-83
2021/10/17 05:34:25;;;;;;;20.77;18.87;;;10.60;99.90;;;;;;10145753;29;20338;-82
2021/10/17 05:39:29;;;;;;;21.83;19.73;;;10.60;99.90;;;;;;10147735;29;20225;-83
2021/10/17 05:44:32;;;;;;;21.73;19.80;;;10.60;99.90;;;;;;10147417;29;20289;-82
2021/10/17 05:49:53;;;;;;;18.70;17.00;;;10.60;99.90;;;;;;10165592;29;20194;-82
2021/10/17 05:54:57;;;;;;;19.57;17.63;;;10.60;99.90;;;;;;10148095;29;20233;-83
2021/10/17 06:00:00;;;;;;;19.77;17.97;;;10.60;99.90;;;;;;10164025;29;20218;-83
2021/10/17 06:05:04;;;;;;;17.50;15.90;;;10.60;99.90;;;;;;10148437;29;20572;-82
2021/10/17 06:10:09;;;;;;;17.87;16.20;;;10.60;99.90;;;;;;10149789;29;20229;-82
2021/10/17 06:15:13;;;;;;;17.00;15.30;;;10.60;99.90;;;;;;10150842;29;20277;-83
2021/10/17 06:20:15;;;;;;;17.37;15.77;;;10.60;99.90;;;;;;10171011;29;20230;-83
2021/10/17 06:25:22;;;;;;;15.60;14.10;;;10.70;99.90;;;;;;10173847;29;20637;-83
2021/10/17 06:30:25;;;;;;;16.83;15.40;;;10.70;99.90;;;;;;10147838;29;20208;-83
2021/10/17 06:35:27;;;;;;;16.17;14.77;;;10.70;99.90;;;;;;10145442;29;20293;-83
2021/10/17 06:40:31;;;;;;;15.43;13.83;;;10.80;99.90;;;;;;10165106;29;20769;-82
2021/10/17 06:45:33;;;;;;;16.50;15.00;;;10.80;99.90;;;;;;10161450;29;20607;-83
2021/10/17 06:50:36;;;;;;;17.33;15.50;;;10.90;99.90;;;;;;10144711;29;20230;-83
2021/10/17 06:55:39;;;;;;;16.63;14.93;;;10.90;99.90;;;;;;10145694;29;20270;-83
2021/10/17 07:00:42;;;;;;;17.70;15.87;;;11.00;99.90;;;;;;10144981;29;20230;-82
2021/10/17 07:05:46;;;;;;;17.27;15.77;;;11.10;99.90;;;;;;10146844;29;20293;-83
2021/10/17 07:10:50;;;;;;;16.77;15.20;;;11.10;99.90;;;;;;10165945;29;20634;-83
2021/10/17 07:16:15;;;;;;;16.93;15.43;;;11.10;99.90;;;;;;10168115;29;20237;-82
2021/10/17 07:21:17;;;;;;;16.87;15.37;;;11.20;99.90;;;;;;10152128;29;20233;-83
2021/10/17 07:26:21;;;;;;;19.17;16.90;;;11.20;99.90;;;;;;10168930;29;20228;-83
2021/10/17 07:31:24;;;;;;;18.37;16.77;;;11.30;99.90;;;;;;10153098;29;20221;-83
2021/10/17 07:36:34;;;;;;;19.23;17.60;;;11.30;99.90;;;;;;10152699;29;20681;-83
2021/10/17 07:41:48;;;;;;;21.83;19.83;;;11.30;99.90;;;;;;10153243;29;20616;-83
2021/10/17 07:46:50;;;;;;;20.30;18.50;;;11.40;99.90;;;;;;10154240;29;20226;-83
2021/10/17 07:51:53;;;;;;;22.30;20.20;;;11.50;99.90;;;;;;10155570;29;20206;-82
2021/10/17 07:56:57;;;;;;;20.77;18.97;;;11.50;99.90;;;;;;10171847;29;20215;-83
2021/10/17 08:02:06;;;;;;;21.27;19.33;;;11.50;99.90;;;;;;10185317;29;20260;-83
2021/10/17 08:07:15;;;;;;;20.17;18.37;;;11.60;99.90;;;;;;10154032;29;20229;-83
2021/10/17 08:12:21;;;;;;;21.83;19.83;;;11.60;99.90;;;;;;10155109;29;20198;-83
2021/10/17 08:17:23;;;;;;;20.60;18.70;;;11.70;99.90;;;;;;10187469;29;20232;-83
2021/10/17 08:22:36;;;;;;;19.73;17.90;;;11.80;99.90;;;;;;10170317;29;20224;-83
2021/10/17 08:27:43;;;;;;;21.63;19.63;;;11.90;99.90;;;;;;10162002;29;20216;-83
2021/10/17 08:32:51;;;;;;;20.30;18.30;;;12.00;99.90;;;;;;10172867;29;20264;-82
2021/10/17 08:37:54;;;;;;;21.13;19.17;;;12.10;99.90;;;;;;10155676;29;20210;-83
2021/10/17 08:43:08;;;;;;;19.03;17.33;;;12.20;99.90;;;;;;10161450;29;20229;-83
2021/10/17 08:48:25;;;;;;;19.50;17.70;;;12.20;99.90;;;;;;10145394;29;20209;-83
2021/10/17 08:53:34;;;;;;;19.37;17.57;;;12.20;99.90;;;;;;10166159;29;20358;-83
2021/10/17 08:58:58;;;;;;;19.00;17.10;;;12.30;99.90;;;;;;10164237;29;20210;-83
2021/10/17 09:04:28;;;;;;;17.70;16.10;;;12.40;99.90;;;;;;10177218;29;20372;-82
2021/10/17 09:09:36;;;;;;;20.23;18.33;;;12.40;99.90;;;;;;10165969;29;20194;-83
2021/10/17 09:14:40;;;;;;;19.90;18.00;;;12.40;99.90;;;;;;10149701;29;20238;-83
2021/10/17 09:19:42;;;;;;;19.77;17.97;;;12.50;99.90;;;;;;10164652;29;20218;-83
2021/10/17 09:24:49;;;;;;;20.90;19.03;;;12.50;99.90;;;;;;10150301;29;20226;-83
2021/10/17 09:29:55;;;;;;;20.73;18.73;;;12.50;99.90;;;;;;10151762;29;20289;-83
2021/10/17 09:35:00;;;;;;;21.47;19.47;;;12.50;99.90;;;;;;10166891;29;20284;-83
2021/10/17 09:40:17;;;;;;;20.93;18.83;;;12.60;99.90;;;;;;10154885;29;20249;-83
2021/10/17 09:45:33;;;;;;;22.10;19.90;;;12.50;99.90;;;;;;10178785;29;20230;-83
2021/10/17 09:50:35;;;;;;;20.50;18.40;;;12.60;99.90;;;;;;10161917;29;20250;-83
2021/10/17 09:55:37;;;;;;;20.60;18.70;;;12.70;99.90;;;;;;10148127;29;20269;-83
2021/10/17 10:00:43;;;;;;;21.60;19.30;;;12.70;99.90;;;;;;10162014;29;20277;-83
2021/10/17 10:05:46;;;;;;;19.93;18.00;;;12.80;99.90;;;;;;10146809;29;20221;-83
2021/10/17 10:10:49;;;;;;;22.63;20.43;;;12.90;99.90;;;;;;10162047;29;20246;-83
2021/10/17 10:15:54;;;;;;;19.73;17.93;;;12.90;99.90;;;;;;10148202;29;20226;-83
2021/10/17 10:20:56;;;;;;;21.30;19.20;;;12.90;99.90;;;;;;10164417;29;20237;-83
2021/10/17 10:25:59;;;;;;;20.37;18.37;;;12.90;99.90;;;;;;10148582;29;20258;-83
2021/10/17 10:31:03;;;;;;;22.93;20.70;;;13.00;99.90;;;;;;10148597;29;20233;-83
2021/10/17 10:36:12;;;;;;;22.90;20.50;;;13.10;99.90;;;;;;10165970;29;20652;-83
2021/10/17 10:41:15;;;;;;;22.27;20.10;;;13.20;99.90;;;;;;10153868;29;20257;-82
2021/10/17 10:46:29;;;;;;;21.73;19.53;;;13.20;99.90;;;;;;10148607;29;20256;-84
2021/10/17 10:51:38;;;;;;;25.90;23.40;;;13.20;99.90;;;;;;10170810;29;20194;-83
2021/10/17 10:56:48;;;;;;;24.73;22.23;;;13.20;99.90;;;;;;10174843;29;20609;-83
2021/10/17 11:01:58;;;;;;;25.43;22.97;;;13.20;99.90;;;;;;10171612;29;20658;-83
2021/10/17 11:07:34;;;;;;;23.57;21.30;;;13.20;99.90;;;;;;10186420;29;20281;-84
2021/10/17 11:12:52;;;;;;;22.90;20.80;;;13.30;99.90;;;;;;10171635;29;20253;-83
2021/10/17 11:17:57;;;;;;;23.93;21.63;;;13.40;99.90;;;;;;10176750;29;20204;-83
2021/10/17 11:23:00;;;;;;;23.30;21.17;;;13.50;99.90;;;;;;10182418;29;20233;-84
2021/10/17 11:28:03;;;;;;;24.37;22.17;;;13.60;99.90;;;;;;10169053;29;20206;-83
2021/10/17 11:33:19;;;;;;;25.77;23.27;;;13.60;99.90;;;;;;10168157;29;20745;-83
2021/10/17 11:38:21;;;;;;;22.77;20.47;;;13.80;99.90;;;;;;10177583;29;20233;-83
2021/10/17 11:43:32;;;;;;;23.70;21.40;;;13.70;99.90;;;;;;10182485;29;20313;-83
2021/10/17 11:48:37;;;;;;;22.77;20.50;;;13.80;99.90;;;;;;10204692;29;20225;-83
2021/10/17 11:53:40;;;;;;;20.37;18.50;;;13.80;99.90;;;;;;10190686;29;20726;-83
2021/10/17 11:58:45;;;;;;;21.67;19.53;;;13.80;99.90;;;;;;10165632;29;20211;-84
2021/10/17 12:03:53;;;;;;;21.73;19.63;;;13.90;99.90;;;;;;10182330;29;20218;-83
2021/10/17 12:09:00;;;;;;;21.67;19.57;;;13.90;99.90;;;;;;10173627;29;20576;-84
2021/10/17 12:14:02;;;;;;;20.40;18.40;;;14.00;99.90;;;;;;10200306;29;20210;-83
2021/10/17 12:19:10;;;;;;;20.87;18.97;;;14.00;99.90;;;;;;10180675;29;20241;-82
2021/10/17 12:24:13;;;;;;;24.40;22.00;;;14.00;99.90;;;;;;10180614;29;20217;-83
2021/10/17 12:29:35;;;;;;;20.40;18.50;;;14.00;99.90;;;;;;10181969;29;20302;-84
2021/10/17 12:34:40;;;;;;;21.47;19.27;;;14.00;99.90;;;;;;10166246;29;20276;-83
2021/10/17 12:39:43;;;;;;;23.57;21.27;;;14.00;99.90;;;;;;10180531;29;20663;-83
2021/10/17 12:44:47;;;;;;;22.73;20.33;;;14.10;99.90;;;;;;10165303;29;20320;-84
2021/10/17 12:49:50;;;;;;;22.63;20.33;;;14.10;99.90;;;;;;10175647;29;20670;-83
2021/10/17 12:54:56;;;;;;;22.77;19.57;;;14.10;99.90;;;;;;10163452;29;20244;-83
2021/10/17 13:00:02;;;;;;;21.43;19.43;;;14.00;99.90;;;;;;10169165;29;20274;-83
2021/10/17 13:05:14;;;;;;;22.80;20.67;;;14.10;99.90;;;;;;10172177;29;20230;-82
2021/10/17 13:10:17;;;;;;;23.07;20.87;;;14.10;99.90;;;;;;10161889;29;20202;-83
2021/10/17 13:15:26;;;;;;;23.67;21.27;;;14.10;99.90;;;;;;10178726;29;20224;-83
2021/10/17 13:20:34;;;;;;;23.53;21.23;;;14.00;99.90;;;;;;10165090;29;20709;-83
2021/10/17 13:25:40;;;;;;;21.50;19.30;;;14.00;99.90;;;;;;10167788;29;20225;-82
2021/10/17 13:30:42;;;;;;;22.07;20.00;;;13.90;99.90;;;;;;10190793;29;20205;-83
2021/10/17 13:35:48;;;;;;;21.73;19.63;;;13.90;99.90;;;;;;10165307;29;20231;-85
2021/10/17 13:40:50;;;;;;;22.23;20.13;;;13.90;99.90;;;;;;10163484;29;20608;-83
2021/10/17 13:45:56;;;;;;;23.40;21.00;;;13.90;99.90;;;;;;10179451;29;20261;-85
2021/10/17 13:50:59;;;;;;;21.97;19.70;;;13.90;99.90;;;;;;10161030;29;20208;-83
2021/10/17 13:56:01;;;;;;;17.17;15.40;;;13.80;99.90;;;;;;10177310;29;20282;-82
2021/10/17 14:01:03;;;;;;;21.73;19.40;;;13.80;99.90;;;;;;10215661;29;20213;-84
2021/10/17 14:06:07;;;;;;;23.20;21.00;;;13.80;99.90;;;;;;10198409;29;20308;-84
2021/10/17 14:11:21;;;;;;;21.40;19.33;;;13.80;99.90;;;;;;10177545;29;20204;-84
2021/10/17 14:16:24;;;;;;;21.63;19.53;;;13.80;99.90;;;;;;10196556;29;20220;-82
2021/10/17 14:21:27;;;;;;;23.57;21.27;;;13.80;99.90;;;;;;10198850;29;20225;-83
2021/10/17 14:26:30;;;;;;;22.37;20.17;;;13.80;99.90;;;;;;10197883;29;20288;-83
2021/10/17 14:31:35;;;;;;;23.00;20.70;;;13.80;99.90;;;;;;10191570;29;20198;-85
2021/10/17 14:36:39;;;;;;;22.60;20.30;;;13.70;99.90;;;;;;10165707;29;20244;-83
2021/10/17 14:41:42;;;;;;;22.90;20.70;;;13.70;99.90;;;;;;10176925;29;20289;-83
2021/10/17 14:46:44;;;;;;;22.37;20.10;;;13.60;99.90;;;;;;10185804;29;20309;-83
2021/10/17 14:51:48;;;;;;;22.13;19.77;;;13.60;99.90;;;;;;10156754;29;20201;-84
2021/10/17 14:56:50;;;;;;;24.63;22.03;;;13.60;99.90;;;;;;10138386;29;20293;-84
2021/10/17 15:01:52;;;;;;;21.83;19.70;;;13.60;99.90;;;;;;10183779;29;20218;-83
2021/10/17 15:06:59;;;;;;;24.40;21.80;;;13.60;99.90;;;;;;10173658;29;20268;-84
2021/10/17 15:12:02;;;;;;;22.70;19.97;;;13.60;99.90;;;;;;10172355;29;20615;-83
2021/10/17 15:17:04;;;;;;;23.10;20.40;;;13.50;99.90;;;;;;10139279;29;20694;-82
2021/10/17 15:22:07;;;;;;;23.30;20.90;;;13.50;99.90;;;;;;10172014;29;20679;-83
2021/10/17 15:27:10;;;;;;;23.30;20.90;;;13.40;99.90;;;;;;10138433;29;20222;-84
2021/10/17 15:32:12;;;;;;;24.93;22.47;;;13.40;99.90;;;;;;10142659;29;20202;-84
2021/10/17 15:37:15;;;;;;;24.10;21.70;;;13.30;99.90;;;;;;10178255;29;20237;-83
2021/10/17 15:42:20;;;;;;;26.00;23.30;;;13.30;99.90;;;;;;10140846;29;20207;-84
2021/10/17 15:47:22;;;;;;;26.03;23.33;;;13.30;99.90;;;;;;10141184;29;20281;-83
2021/10/17 15:52:26;;;;;;;22.77;20.47;;;13.20;99.90;;;;;;10173788;29;20206;-83
2021/10/17 15:57:32;;;;;;;23.87;21.47;;;13.10;99.90;;;;;;10144241;29;20300;-84
2021/10/17 16:02:37;;;;;;;26.13;21.83;;;13.10;99.90;;;;;;10178334;29;20214;-86
2021/10/17 16:21:16;;;;;;;27.20;23.43;;;13.00;99.90;;;;;;9925262;29;20264;-86
2021/10/17 16:26:35;;;;;;;27.63;23.43;;;13.00;99.90;;;;;;10069498;29;20245;-86
2021/10/17 16:31:42;;;;;;;27.67;24.00;;;12.90;99.90;;;;;;10138606;29;20786;-86
2021/10/17 16:36:47;;;;;;;27.30;23.20;;;12.90;99.90;;;;;;10139217;29;20644;-86
2021/10/17 16:41:49;;;;;;;26.33;23.27;;;12.90;99.90;;;;;;10153192;29;20742;-86
2021/10/17 16:46:51;;;;;;;29.77;24.20;;;12.80;99.90;;;;;;10238855;23;20229;-81
2021/10/17 16:51:55;;;;;;;32.33;25.80;;;12.80;99.90;;;;;;10254895;29;20204;-81
2021/10/17 16:56:57;;;;;;;28.43;24.57;;;12.80;99.90;;;;;;10208160;29;20796;-81
2021/10/17 17:01:59;;;;;;;32.73;26.80;;;12.70;99.90;;;;;;10193700;29;20229;-81
2021/10/17 17:07:03;;;;;;;30.10;25.63;;;12.70;99.90;;;;;;10182862;29;20233;-81
2021/10/17 17:12:06;;;;;;;30.70;26.50;;;12.70;99.90;;;;;;10230028;29;20273;-81
2021/10/17 17:17:08;;;;;;;30.00;25.77;;;12.70;99.90;;;;;;10216423;29;20229;-81
2021/10/17 17:22:11;;;;;;;32.27;25.83;;;12.70;99.90;;;;;;10198224;29;20240;-81
2021/10/17 17:27:13;;;;;;;33.40;27.70;;;12.70;99.90;;;;;;10210922;29;20320;-80
2021/10/17 17:32:16;;;;;;;31.03;25.90;;;12.70;99.90;;;;;;10211356;29;20205;-81
2021/10/17 17:37:20;;;;;;;33.60;26.80;;;12.70;99.90;;;;;;10210912;29;20245;-81
2021/10/17 17:42:22;;;;;;;32.17;27.33;;;12.70;99.90;;;;;;10222120;29;20221;-81
2021/10/17 17:47:25;;;;;;;36.13;27.37;;;12.60;99.90;;;;;;10211122;29;20233;-81
2021/10/17 17:52:30;;;;;;;37.03;27.97;;;12.60;99.90;;;;;;10212392;29;20235;-81
2021/10/17 17:57:33;;;;;;;29.83;23.60;;;12.60;99.90;;;;;;10219825;29;20248;-81
2021/10/17 18:02:35;;;;;;;39.60;30.00;;;12.60;99.90;;;;;;10217585;29;20236;-81
2021/10/17 18:07:39;;;;;;;38.10;29.80;;;12.60;99.90;;;;;;10211133;29;20225;-81
2021/10/17 18:12:41;;;;;;;37.20;30.93;;;12.60;99.90;;;;;;10209226;29;20677;-81
2021/10/17 18:17:43;;;;;;;37.57;29.33;;;12.60;99.90;;;;;;10215129;29;20237;-81
2021/10/17 18:22:46;;;;;;;34.17;27.37;;;12.60;99.90;;;;;;10211343;29;20835;-81
2021/10/17 18:27:50;;;;;;;33.43;25.90;;;12.60;99.90;;;;;;10224150;29;20276;-81
2021/10/17 18:32:52;;;;;;;29.80;24.40;;;12.60;99.90;;;;;;10238727;29;20204;-81
2021/10/17 18:37:56;;;;;;;27.73;23.57;;;12.60;99.90;;;;;;10236055;29;20228;-81
2021/10/17 18:42:58;;;;;;;27.17;23.40;;;12.60;99.90;;;;;;10265414;29;20324;-81
2021/10/17 18:48:03;;;;;;;28.17;22.87;;;12.60;99.90;;;;;;10218007;29;20229;-81
2021/10/17 18:53:07;;;;;;;27.10;23.67;;;12.60;99.90;;;;;;10208654;29;20692;-80
2021/10/17 18:58:09;;;;;;;25.27;22.27;;;12.70;99.90;;;;;;10177825;29;20212;-81
2021/10/17 19:03:11;;;;;;;22.80;20.30;;;12.60;99.90;;;;;;10223647;29;20233;-81
2021/10/17 19:08:17;;;;;;;27.23;21.30;;;12.60;99.90;;;;;;10261036;28;20666;-81
2021/10/17 19:13:20;;;;;;;25.13;20.70;;;12.50;99.90;;;;;;10248180;29;20228;-80
2021/10/17 19:18:23;;;;;;;23.40;20.10;;;12.50;99.90;;;;;;10232743;28;20825;-81
2021/10/17 19:23:29;;;;;;;24.00;21.60;;;12.40;99.90;;;;;;10249247;29;20255;-81
2021/10/17 19:28:31;;;;;;;22.43;20.03;;;12.30;99.90;;;;;;10220755;29;20220;-81
2021/10/17 19:33:35;;;;;;;25.57;21.80;;;12.20;99.90;;;;;;10267940;29;20212;-81
2021/10/17 19:38:38;;;;;;;24.50;21.90;;;12.10;99.90;;;;;;10247781;29;20236;-81
2021/10/17 19:43:40;;;;;;;26.43;23.63;;;11.90;99.90;;;;;;10198033;29;20225;-80
2021/10/17 19:48:44;;;;;;;27.57;23.30;;;11.90;99.90;;;;;;10212352;29;20677;-81
2021/10/17 19:53:47;;;;;;;27.00;24.07;;;11.90;99.90;;;;;;10203364;29;20240;-81
2021/10/17 19:58:50;;;;;;;28.23;25.03;;;11.90;99.90;;;;;;10208533;29;20204;-80
2021/10/17 20:03:52;;;;;;;31.40;25.00;;;11.80;99.90;;;;;;10217634;29;20272;-81
2021/10/17 20:08:55;;;;;;;25.63;22.87;;;11.70;99.90;;;;;;10212963;29;20201;-80
2021/10/17 20:13:57;;;;;;;26.83;23.17;;;11.70;99.90;;;;;;10207807;29;20246;-81
2021/10/17 20:19:02;;;;;;;26.70;23.30;;;11.70;99.90;;;;;;10213185;29;20225;-80
2021/10/17 20:24:05;;;;;;;27.53;22.50;;;11.70;99.90;;;;;;10222367;29;20297;-81
2021/10/17 20:29:08;;;;;;;27.93;23.03;;;11.70;99.90;;;;;;10173926;29;20654;-81
2021/10/17 20:34:12;;;;;;;25.07;20.90;;;11.60;99.90;;;;;;10206442;29;20214;-80
2021/10/17 20:39:22;;;;;;;27.40;22.07;;;11.60;99.90;;;;;;10218464;29;20682;-80
2021/10/17 20:44:25;;;;;;;29.23;21.70;;;11.60;99.90;;;;;;10212526;29;20221;-80
2021/10/17 20:49:28;;;;;;;26.40;21.90;;;11.60;99.90;;;;;;10196648;29;20205;-80
2021/10/17 20:54:32;;;;;;;26.70;23.00;;;11.60;99.90;;;;;;10210909;29;20237;-80
2021/10/17 20:59:34;;;;;;;33.33;24.67;;;11.60;99.90;;;;;;10165039;29;20245;-80
2021/10/17 21:04:36;;;;;;;30.97;23.27;;;11.60;99.90;;;;;;10168412;29;20230;-80
2021/10/17 21:09:40;;;;;;;27.13;22.83;;;11.60;99.90;;;;;;10169563;29;20629;-80
2021/10/17 21:14:42;;;;;;;29.57;23.87;;;11.70;99.90;;;;;;10189808;29;20233;-80
2021/10/17 21:19:44;;;;;;;31.73;25.27;;;11.70;99.90;;;;;;10167131;29;20258;-80
2021/10/17 21:24:56;;;;;;;27.47;23.63;;;11.70;99.90;;;;;;10165180;29;20253;-81
2021/10/17 21:29:58;;;;;;;25.63;21.33;;;11.70;99.90;;;;;;10164593;29;20257;-81
2021/10/17 21:35:00;;;;;;;26.70;21.27;;;11.70;99.90;;;;;;10165551;29;20222;-81
2021/10/17 21:40:08;;;;;;;24.60;21.43;;;11.60;99.90;;;;;;10148385;29;20237;-81
2021/10/17 21:45:11;;;;;;;26.63;20.77;;;11.60;99.90;;;;;;10161682;29;20233;-81
2021/10/17 21:50:13;;;;;;;26.23;20.83;;;11.50;99.90;;;;;;10169079;29;20205;-81
2021/10/17 21:55:17;;;;;;;27.03;22.57;;;11.40;99.90;;;;;;10187894;29;20236;-81
2021/10/17 22:00:25;;;;;;;23.67;20.97;;;11.40;99.90;;;;;;10202406;29;20670;-81
2021/10/17 22:05:27;;;;;;;25.70;22.00;;;11.40;99.90;;;;;;10216884;29;20257;-81
2021/10/17 22:10:31;;;;;;;26.03;22.73;;;11.30;99.90;;;;;;10204140;29;20209;-81
2021/10/17 22:15:34;;;;;;;27.80;22.30;;;11.30;99.90;;;;;;10218388;29;20217;-81
2021/10/17 22:20:36;;;;;;;25.17;21.57;;;11.30;99.90;;;;;;10199953;29;20213;-81
2021/10/17 22:25:40;;;;;;;30.37;23.20;;;11.30;99.90;;;;;;10200042;29;20228;-81
2021/10/17 22:30:42;;;;;;;30.00;24.90;;;11.30;99.90;;;;;;10231625;28;20243;-81
2021/10/17 22:35:44;;;;;;;30.63;24.70;;;11.30;99.90;;;;;;10200115;29;20595;-81
2021/10/17 22:40:47;;;;;;;33.33;26.73;;;11.30;99.90;;;;;;10204490;29;20707;-81
2021/10/17 22:45:49;;;;;;;31.40;24.23;;;11.30;99.90;;;;;;10234204;23;20728;-83
2021/10/17 22:50:52;;;;;;;35.20;27.17;;;11.20;99.90;;;;;;10189294;29;20605;-83
2021/10/17 22:55:55;;;;;;;35.07;26.63;;;11.20;99.90;;;;;;10190358;29;20221;-82
2021/10/17 23:00:57;;;;;;;33.83;27.67;;;11.20;99.90;;;;;;10189802;29;20205;-83
2021/10/17 23:05:59;;;;;;;31.80;25.23;;;11.20;99.90;;;;;;10189275;29;20322;-83
2021/10/17 23:11:03;;;;;;;34.27;25.10;;;11.20;99.90;;;;;;10205813;29;20224;-83
2021/10/17 23:16:06;;;;;;;34.33;26.47;;;11.20;99.90;;;;;;10189046;29;20307;-83
2021/10/17 23:21:08;;;;;;;29.03;24.03;;;11.10;99.90;;;;;;10190148;29;20232;-83
2021/10/17 23:26:11;;;;;;;34.30;25.10;;;11.10;99.90;;;;;;10222867;29;20764;-83
2021/10/17 23:31:16;;;;;;;33.20;25.87;;;11.10;99.90;;;;;;10201920;29;20213;-83
2021/10/17 23:36:18;;;;;;;29.37;24.40;;;11.10;99.90;;;;;;10189322;29;20221;-83
2021/10/17 23:41:22;;;;;;;27.97;22.70;;;11.00;99.90;;;;;;10208893;29;20209;-83
2021/10/17 23:46:26;;;;;;;33.70;24.27;;;11.00;99.90;;;;;;10204986;28;20233;-83
2021/10/17 23:51:28;;;;;;;28.77;22.07;;;11.00;99.90;;;;;;10200842;29;20209;-83
2021/10/17 23:56:32;;;;;;;28.87;23.50;;;10.90;99.90;;;;;;10218686;29;20224;-83
